sensor_id;sensor_type;location;lat;lon;timestamp;temperature;humidity
484;DHT22;228;48.922;12.198;2023-06-26T04:01:55;19.60;67.70
484;DHT22;228;48.922;12.198;2023-06-26T04:04:21;19.70;67.60
484;DHT22;228;48.922;12.198;2023-06-26T04:06:47;19.90;67.40
484;DHT22;228;48.922;12.198;2023-06-26T04:09:13;20.00;67.30
484;DHT22;228;48.922;12.198;2023-06-26T04:11:39;20.10;67.00
484;DHT22;228;48.922;12.198;2023-06-26T04:14:05;20.20;67.00
484;DHT22;228;48.922;12.198;2023-06-26T04:16:31;20.20;66.80
484;DHT22;228;48.922;12.198;2023-06-26T04:18:58;20.30;66.40
484;DHT22;228;48.922;12.198;2023-06-26T04:21:24;20.40;66.00
484;DHT22;228;48.922;12.198;2023-06-26T04:23:51;20.60;65.90
484;DHT22;228;48.922;12.198;2023-06-26T04:26:17;20.80;65.40
484;DHT22;228;48.922;12.198;2023-06-26T04:28:43;20.90;65.00
484;DHT22;228;48.922;12.198;2023-06-26T04:31:09;21.00;64.70
484;DHT22;228;48.922;12.198;2023-06-26T04:33:36;21.10;64.10
484;DHT22;228;48.922;12.198;2023-06-26T04:36:04;21.20;64.10
484;DHT22;228;48.922;12.198;2023-06-26T04:38:33;21.30;64.30
484;DHT22;228;48.922;12.198;2023-06-26T04:41:01;21.40;64.10
484;DHT22;228;48.922;12.198;2023-06-26T04:43:27;21.40;64.10
484;DHT22;228;48.922;12.198;2023-06-26T04:45:53;21.50;63.90
484;DHT22;228;48.922;12.198;2023-06-26T04:48:19;21.60;63.60
484;DHT22;228;48.922;12.198;2023-06-26T04:50:46;21.50;63.60
484;DHT22;228;48.922;12.198;2023-06-26T04:53:20;21.60;64.00
484;DHT22;228;48.922;12.198;2023-06-26T04:55:47;21.80;63.20
484;DHT22;228;48.922;12.198;2023-06-26T04:58:13;21.80;62.20
484;DHT22;228;48.922;12.198;2023-06-26T05:00:39;22.10;61.80
484;DHT22;228;48.922;12.198;2023-06-26T05:03:09;22.30;59.90
484;DHT22;228;48.922;12.198;2023-06-26T05:05:39;22.60;59.50
484;DHT22;228;48.922;12.198;2023-06-26T05:08:20;22.80;59.00
484;DHT22;228;48.922;12.198;2023-06-26T05:10:47;22.50;60.40
484;DHT22;228;48.922;12.198;2023-06-26T05:13:13;22.80;59.10
484;DHT22;228;48.922;12.198;2023-06-26T05:15:43;23.00;58.10
484;DHT22;228;48.922;12.198;2023-06-26T05:18:10;23.20;57.50
484;DHT22;228;48.922;12.198;2023-06-26T05:20:36;23.20;57.60
484;DHT22;228;48.922;12.198;2023-06-26T05:23:03;23.10;58.20
484;DHT22;228;48.922;12.198;2023-06-26T05:25:30;23.30;57.20
484;DHT22;228;48.922;12.198;2023-06-26T05:27:58;23.50;57.40
484;DHT22;228;48.922;12.198;2023-06-26T05:30:27;23.70;57.00
484;DHT22;228;48.922;12.198;2023-06-26T05:32:54;23.80;56.80
484;DHT22;228;48.922;12.198;2023-06-26T05:35:21;23.80;56.90
484;DHT22;228;48.922;12.198;2023-06-26T05:37:50;23.90;56.80
484;DHT22;228;48.922;12.198;2023-06-26T05:40:18;23.90;56.80
484;DHT22;228;48.922;12.198;2023-06-26T05:42:45;24.00;56.50
484;DHT22;228;48.922;12.198;2023-06-26T05:45:11;24.00;55.90
484;DHT22;228;48.922;12.198;2023-06-26T05:47:38;24.10;55.60
484;DHT22;228;48.922;12.198;2023-06-26T05:50:04;24.30;54.80
484;DHT22;228;48.922;12.198;2023-06-26T05:52:31;24.40;55.00
484;DHT22;228;48.922;12.198;2023-06-26T05:55:01;24.40;55.70
484;DHT22;228;48.922;12.198;2023-06-26T05:57:31;24.20;55.70
484;DHT22;228;48.922;12.198;2023-06-26T06:00:02;24.30;55.70
484;DHT22;228;48.922;12.198;2023-06-26T06:02:40;24.20;56.80
484;DHT22;228;48.922;12.198;2023-06-26T06:05:07;24.40;56.40
484;DHT22;228;48.922;12.198;2023-06-26T06:07:34;24.60;56.30
484;DHT22;228;48.922;12.198;2023-06-26T06:10:02;24.40;56.60
484;DHT22;228;48.922;12.198;2023-06-26T06:12:29;24.60;56.30
484;DHT22;228;48.922;12.198;2023-06-26T06:15:13;24.20;56.80
484;DHT22;228;48.922;12.198;2023-06-26T06:17:39;24.30;56.30
484;DHT22;228;48.922;12.198;2023-06-26T06:20:05;24.60;56.10
484;DHT22;228;48.922;12.198;2023-06-26T06:22:32;24.40;57.20
484;DHT22;228;48.922;12.198;2023-06-26T06:25:01;24.60;56.70
484;DHT22;228;48.922;12.198;2023-06-26T06:27:28;24.40;56.00
484;DHT22;228;48.922;12.198;2023-06-26T06:29:54;24.40;56.30
484;DHT22;228;48.922;12.198;2023-06-26T06:32:21;24.60;55.20
484;DHT22;228;48.922;12.198;2023-06-26T06:34:47;24.40;56.90
484;DHT22;228;48.922;12.198;2023-06-26T06:37:13;24.60;58.60
484;DHT22;228;48.922;12.198;2023-06-26T06:39:40;24.60;57.60
484;DHT22;228;48.922;12.198;2023-06-26T06:42:06;25.00;56.30
484;DHT22;228;48.922;12.198;2023-06-26T06:44:32;25.10;55.00
484;DHT22;228;48.922;12.198;2023-06-26T06:46:58;25.10;54.80
484;DHT22;228;48.922;12.198;2023-06-26T06:49:25;25.30;54.90
484;DHT22;228;48.922;12.198;2023-06-26T06:51:51;25.40;53.30
484;DHT22;228;48.922;12.198;2023-06-26T06:54:18;25.00;53.70
484;DHT22;228;48.922;12.198;2023-06-26T06:56:45;25.40;51.00
484;DHT22;228;48.922;12.198;2023-06-26T06:59:11;25.40;52.10
484;DHT22;228;48.922;12.198;2023-06-26T07:01:40;25.70;51.20
484;DHT22;228;48.922;12.198;2023-06-26T07:04:06;25.90;50.50
484;DHT22;228;48.922;12.198;2023-06-26T07:06:32;26.00;49.30
484;DHT22;228;48.922;12.198;2023-06-26T07:08:58;26.20;49.20
484;DHT22;228;48.922;12.198;2023-06-26T07:11:24;26.30;48.40
484;DHT22;228;48.922;12.198;2023-06-26T07:13:50;26.10;48.70
484;DHT22;228;48.922;12.198;2023-06-26T07:16:16;25.50;50.90
484;DHT22;228;48.922;12.198;2023-06-26T07:18:43;25.80;50.70
484;DHT22;228;48.922;12.198;2023-06-26T07:21:09;26.00;50.40
484;DHT22;228;48.922;12.198;2023-06-26T07:23:35;25.80;50.90
484;DHT22;228;48.922;12.198;2023-06-26T07:26:01;26.20;49.90
484;DHT22;228;48.922;12.198;2023-06-26T07:28:27;26.20;49.40
484;DHT22;228;48.922;12.198;2023-06-26T07:30:53;26.50;48.90
484;DHT22;228;48.922;12.198;2023-06-26T07:33:19;26.60;48.30
484;DHT22;228;48.922;12.198;2023-06-26T07:35:46;26.60;47.50
484;DHT22;228;48.922;12.198;2023-06-26T07:38:12;26.40;47.70
484;DHT22;228;48.922;12.198;2023-06-26T07:40:38;26.70;48.40
484;DHT22;228;48.922;12.198;2023-06-26T07:43:04;26.70;47.80
484;DHT22;228;48.922;12.198;2023-06-26T07:45:30;26.40;48.30
484;DHT22;228;48.922;12.198;2023-06-26T07:47:56;26.80;48.30
484;DHT22;228;48.922;12.198;2023-06-26T07:50:22;26.90;47.40
484;DHT22;228;48.922;12.198;2023-06-26T07:52:49;26.50;47.40
484;DHT22;228;48.922;12.198;2023-06-26T07:55:17;26.80;47.30
484;DHT22;228;48.922;12.198;2023-06-26T07:57:43;26.70;47.70
484;DHT22;228;48.922;12.198;2023-06-26T08:00:11;27.20;46.90
484;DHT22;228;48.922;12.198;2023-06-26T08:02:40;27.70;46.50
484;DHT22;228;48.922;12.198;2023-06-26T08:05:07;28.00;45.60
484;DHT22;228;48.922;12.198;2023-06-26T08:07:33;28.10;44.40
484;DHT22;228;48.922;12.198;2023-06-26T08:09:59;27.60;46.80
484;DHT22;228;48.922;12.198;2023-06-26T08:12:25;27.70;46.80
484;DHT22;228;48.922;12.198;2023-06-26T08:14:50;27.70;46.20
484;DHT22;228;48.922;12.198;2023-06-26T08:17:16;27.30;45.60
484;DHT22;228;48.922;12.198;2023-06-26T08:19:42;27.50;46.20
484;DHT22;228;48.922;12.198;2023-06-26T08:22:09;28.00;45.30
484;DHT22;228;48.922;12.198;2023-06-26T08:24:34;28.10;45.40
484;DHT22;228;48.922;12.198;2023-06-26T08:27:07;28.50;45.20
484;DHT22;228;48.922;12.198;2023-06-26T08:33:02;28.70;46.00
484;DHT22;228;48.922;12.198;2023-06-26T08:35:54;28.80;45.40
484;DHT22;228;48.922;12.198;2023-06-26T08:38:21;28.90;44.70
484;DHT22;228;48.922;12.198;2023-06-26T08:40:50;29.50;43.30
484;DHT22;228;48.922;12.198;2023-06-26T08:43:19;29.20;43.30
484;DHT22;228;48.922;12.198;2023-06-26T08:46:02;29.40;43.00
484;DHT22;228;48.922;12.198;2023-06-26T08:48:32;29.80;41.50
484;DHT22;228;48.922;12.198;2023-06-26T08:51:08;30.20;41.40
484;DHT22;228;48.922;12.198;2023-06-26T08:53:48;30.20;41.40
484;DHT22;228;48.922;12.198;2023-06-26T08:56:17;29.80;41.20
484;DHT22;228;48.922;12.198;2023-06-26T09:01:39;29.90;41.00
484;DHT22;228;48.922;12.198;2023-06-26T09:04:10;30.60;40.80
484;DHT22;228;48.922;12.198;2023-06-26T09:06:38;30.80;39.30
484;DHT22;228;48.922;12.198;2023-06-26T09:09:07;30.90;38.30
484;DHT22;228;48.922;12.198;2023-06-26T09:11:48;31.20;40.70
484;DHT22;228;48.922;12.198;2023-06-26T09:14:41;31.40;37.70
484;DHT22;228;48.922;12.198;2023-06-26T09:17:10;31.30;37.30
484;DHT22;228;48.922;12.198;2023-06-26T09:19:46;31.50;36.50
484;DHT22;228;48.922;12.198;2023-06-26T09:22:38;30.70;38.80
484;DHT22;228;48.922;12.198;2023-06-26T09:25:08;31.00;39.80
484;DHT22;228;48.922;12.198;2023-06-26T09:27:39;31.10;38.30
484;DHT22;228;48.922;12.198;2023-06-26T09:30:19;31.40;37.50
484;DHT22;228;48.922;12.198;2023-06-26T09:33:19;31.80;37.80
484;DHT22;228;48.922;12.198;2023-06-26T09:36:42;32.10;36.90
484;DHT22;228;48.922;12.198;2023-06-26T09:39:17;32.30;34.80
484;DHT22;228;48.922;12.198;2023-06-26T09:41:45;32.60;32.50
484;DHT22;228;48.922;12.198;2023-06-26T09:44:14;32.90;33.40
484;DHT22;228;48.922;12.198;2023-06-26T09:46:41;33.00;33.50
484;DHT22;228;48.922;12.198;2023-06-26T09:49:11;33.30;32.30
484;DHT22;228;48.922;12.198;2023-06-26T09:51:40;32.70;33.10
484;DHT22;228;48.922;12.198;2023-06-26T09:54:09;33.00;32.50
484;DHT22;228;48.922;12.198;2023-06-26T09:56:38;32.70;31.50
484;DHT22;228;48.922;12.198;2023-06-26T09:59:19;32.30;33.00
484;DHT22;228;48.922;12.198;2023-06-26T10:02:03;32.90;34.10
484;DHT22;228;48.922;12.198;2023-06-26T10:04:34;33.20;29.50
484;DHT22;228;48.922;12.198;2023-06-26T10:07:05;32.50;29.40
484;DHT22;228;48.922;12.198;2023-06-26T10:09:41;32.70;29.00
484;DHT22;228;48.922;12.198;2023-06-26T10:12:18;33.20;29.20
484;DHT22;228;48.922;12.198;2023-06-26T10:14:48;33.30;30.70
484;DHT22;228;48.922;12.198;2023-06-26T10:17:19;33.00;28.90
484;DHT22;228;48.922;12.198;2023-06-26T10:19:48;32.70;28.70
484;DHT22;228;48.922;12.198;2023-06-26T10:22:17;32.50;27.80
484;DHT22;228;48.922;12.198;2023-06-26T10:24:49;32.80;29.00
484;DHT22;228;48.922;12.198;2023-06-26T10:27:18;32.60;28.20
484;DHT22;228;48.922;12.198;2023-06-26T10:29:54;32.50;29.00
484;DHT22;228;48.922;12.198;2023-06-26T10:32:24;32.50;29.00
484;DHT22;228;48.922;12.198;2023-06-26T10:34:53;32.00;28.10
484;DHT22;228;48.922;12.198;2023-06-26T10:37:44;32.50;29.00
484;DHT22;228;48.922;12.198;2023-06-26T10:40:13;32.80;28.00
484;DHT22;228;48.922;12.198;2023-06-26T10:42:40;33.10;28.50
484;DHT22;228;48.922;12.198;2023-06-26T10:45:11;33.20;27.40
484;DHT22;228;48.922;12.198;2023-06-26T10:47:42;33.30;29.20
484;DHT22;228;48.922;12.198;2023-06-26T10:50:28;33.50;27.90
484;DHT22;228;48.922;12.198;2023-06-26T10:53:34;32.90;27.90
484;DHT22;228;48.922;12.198;2023-06-26T10:56:20;33.60;29.10
484;DHT22;228;48.922;12.198;2023-06-26T11:09:06;34.40;27.30
484;DHT22;228;48.922;12.198;2023-06-26T11:14:19;34.60;32.10
484;DHT22;228;48.922;12.198;2023-06-26T11:16:46;34.30;27.70
484;DHT22;228;48.922;12.198;2023-06-26T11:19:13;34.30;28.30
484;DHT22;228;48.922;12.198;2023-06-26T11:21:40;34.70;29.30
484;DHT22;228;48.922;12.198;2023-06-26T11:29:10;35.50;25.70
484;DHT22;228;48.922;12.198;2023-06-26T11:33:29;35.60;26.20
484;DHT22;228;48.922;12.198;2023-06-26T11:37:25;34.90;26.80
484;DHT22;228;48.922;12.198;2023-06-26T11:39:52;36.60;24.40
484;DHT22;228;48.922;12.198;2023-06-26T11:42:19;38.00;23.10
484;DHT22;228;48.922;12.198;2023-06-26T11:44:47;38.70;22.50
484;DHT22;228;48.922;12.198;2023-06-26T11:49:48;39.80;21.10
484;DHT22;228;48.922;12.198;2023-06-26T11:52:15;40.50;21.30
484;DHT22;228;48.922;12.198;2023-06-26T11:54:42;40.70;20.20
484;DHT22;228;48.922;12.198;2023-06-26T11:57:14;40.30;20.40
484;DHT22;228;48.922;12.198;2023-06-26T11:59:40;41.10;20.30
484;DHT22;228;48.922;12.198;2023-06-26T12:02:07;41.50;19.50
484;DHT22;228;48.922;12.198;2023-06-26T12:04:37;42.40;19.90
484;DHT22;228;48.922;12.198;2023-06-26T12:07:06;42.60;19.50
484;DHT22;228;48.922;12.198;2023-06-26T12:09:45;43.00;19.70
484;DHT22;228;48.922;12.198;2023-06-26T12:12:15;43.00;19.90
484;DHT22;228;48.922;12.198;2023-06-26T12:14:42;44.50;19.80
484;DHT22;228;48.922;12.198;2023-06-26T12:17:11;44.50;18.80
484;DHT22;228;48.922;12.198;2023-06-26T12:19:38;44.90;19.00
484;DHT22;228;48.922;12.198;2023-06-26T12:22:13;45.80;18.50
484;DHT22;228;48.922;12.198;2023-06-26T12:24:40;46.20;18.40
484;DHT22;228;48.922;12.198;2023-06-26T12:27:10;45.50;18.10
484;DHT22;228;48.922;12.198;2023-06-26T12:29:39;44.70;19.30
484;DHT22;228;48.922;12.198;2023-06-26T12:32:09;45.20;19.40
484;DHT22;228;48.922;12.198;2023-06-26T12:34:39;44.90;19.00
484;DHT22;228;48.922;12.198;2023-06-26T12:37:07;44.30;19.20
484;DHT22;228;48.922;12.198;2023-06-26T12:39:48;44.00;19.20
484;DHT22;228;48.922;12.198;2023-06-26T12:42:16;43.30;19.90
484;DHT22;228;48.922;12.198;2023-06-26T12:44:43;42.40;20.30
484;DHT22;228;48.922;12.198;2023-06-26T12:47:09;40.70;21.20
484;DHT22;228;48.922;12.198;2023-06-26T12:49:40;41.00;21.80
484;DHT22;228;48.922;12.198;2023-06-26T12:52:13;42.50;21.50
484;DHT22;228;48.922;12.198;2023-06-26T12:54:42;42.60;20.80
484;DHT22;228;48.922;12.198;2023-06-26T12:57:09;40.70;22.00
484;DHT22;228;48.922;12.198;2023-06-26T12:59:38;40.00;23.10
484;DHT22;228;48.922;12.198;2023-06-26T13:02:05;41.50;22.40
484;DHT22;228;48.922;12.198;2023-06-26T13:04:32;42.90;19.50
484;DHT22;228;48.922;12.198;2023-06-26T13:06:58;44.30;19.30
484;DHT22;228;48.922;12.198;2023-06-26T13:09:25;45.20;19.20
484;DHT22;228;48.922;12.198;2023-06-26T13:11:52;43.80;20.70
484;DHT22;228;48.922;12.198;2023-06-26T13:14:18;43.50;20.00
484;DHT22;228;48.922;12.198;2023-06-26T13:16:44;44.00;19.80
484;DHT22;228;48.922;12.198;2023-06-26T13:25:53;45.10;19.40
484;DHT22;228;48.922;12.198;2023-06-26T13:28:36;44.10;21.00
484;DHT22;228;48.922;12.198;2023-06-26T13:32:00;45.40;21.50
484;DHT22;228;48.922;12.198;2023-06-26T13:34:59;45.20;20.70
484;DHT22;228;48.922;12.198;2023-06-26T13:38:16;42.90;20.50
484;DHT22;228;48.922;12.198;2023-06-26T13:40:47;43.20;20.90
484;DHT22;228;48.922;12.198;2023-06-26T13:43:17;44.60;19.60
484;DHT22;228;48.922;12.198;2023-06-26T13:45:50;45.40;18.90
484;DHT22;228;48.922;12.198;2023-06-26T13:48:18;44.40;19.30
484;DHT22;228;48.922;12.198;2023-06-26T13:50:47;41.50;21.40
484;DHT22;228;48.922;12.198;2023-06-26T13:53:14;40.60;22.40
484;DHT22;228;48.922;12.198;2023-06-26T13:55:48;40.70;22.00
484;DHT22;228;48.922;12.198;2023-06-26T13:58:20;41.90;21.00
484;DHT22;228;48.922;12.198;2023-06-26T14:00:49;40.20;21.10
484;DHT22;228;48.922;12.198;2023-06-26T14:03:19;37.40;23.40
484;DHT22;228;48.922;12.198;2023-06-26T14:05:46;35.90;25.10
484;DHT22;228;48.922;12.198;2023-06-26T14:08:13;35.70;26.60
484;DHT22;228;48.922;12.198;2023-06-26T14:10:39;37.60;24.10
484;DHT22;228;48.922;12.198;2023-06-26T14:13:05;39.20;21.60
484;DHT22;228;48.922;12.198;2023-06-26T14:15:32;39.80;21.20
484;DHT22;228;48.922;12.198;2023-06-26T14:17:58;37.70;22.80
484;DHT22;228;48.922;12.198;2023-06-26T14:20:24;36.80;23.60
484;DHT22;228;48.922;12.198;2023-06-26T14:22:50;35.80;24.30
484;DHT22;228;48.922;12.198;2023-06-26T14:25:17;36.50;23.90
484;DHT22;228;48.922;12.198;2023-06-26T14:27:43;38.40;22.40
484;DHT22;228;48.922;12.198;2023-06-26T14:30:09;40.20;21.40
484;DHT22;228;48.922;12.198;2023-06-26T14:32:36;41.80;20.30
484;DHT22;228;48.922;12.198;2023-06-26T14:35:02;42.60;26.80
484;DHT22;228;48.922;12.198;2023-06-26T14:37:30;41.20;26.60
484;DHT22;228;48.922;12.198;2023-06-26T14:39:57;39.50;27.50
484;DHT22;228;48.922;12.198;2023-06-26T14:42:24;39.70;27.70
484;DHT22;228;48.922;12.198;2023-06-26T14:44:52;41.40;26.30
484;DHT22;228;48.922;12.198;2023-06-26T14:47:19;43.30;26.60
484;DHT22;228;48.922;12.198;2023-06-26T14:49:46;43.70;18.30
484;DHT22;228;48.922;12.198;2023-06-26T14:52:12;43.60;18.50
484;DHT22;228;48.922;12.198;2023-06-26T14:54:39;42.60;18.60
484;DHT22;228;48.922;12.198;2023-06-26T14:57:06;41.90;19.20
484;DHT22;228;48.922;12.198;2023-06-26T14:59:32;41.40;19.20
484;DHT22;228;48.922;12.198;2023-06-26T15:01:58;43.00;18.60
484;DHT22;228;48.922;12.198;2023-06-26T15:04:24;44.60;16.90
484;DHT22;228;48.922;12.198;2023-06-26T15:06:50;45.30;17.30
484;DHT22;228;48.922;12.198;2023-06-26T15:09:17;44.70;16.90
484;DHT22;228;48.922;12.198;2023-06-26T15:11:43;43.20;17.10
484;DHT22;228;48.922;12.198;2023-06-26T15:14:09;42.50;17.20
484;DHT22;228;48.922;12.198;2023-06-26T15:16:35;42.30;18.80
484;DHT22;228;48.922;12.198;2023-06-26T15:19:01;43.30;20.20
484;DHT22;228;48.922;12.198;2023-06-26T15:21:27;43.50;18.00
484;DHT22;228;48.922;12.198;2023-06-26T15:23:53;43.80;17.70
484;DHT22;228;48.922;12.198;2023-06-26T15:26:19;42.50;19.40
484;DHT22;228;48.922;12.198;2023-06-26T15:28:45;41.10;20.30
484;DHT22;228;48.922;12.198;2023-06-26T15:31:11;39.40;21.20
484;DHT22;228;48.922;12.198;2023-06-26T15:33:37;38.80;21.30
484;DHT22;228;48.922;12.198;2023-06-26T15:36:04;37.90;22.10
484;DHT22;228;48.922;12.198;2023-06-26T15:38:30;37.30;22.70
484;DHT22;228;48.922;12.198;2023-06-26T15:40:56;38.40;22.20
484;DHT22;228;48.922;12.198;2023-06-26T15:43:22;39.40;20.90
484;DHT22;228;48.922;12.198;2023-06-26T15:45:48;40.00;21.10
484;DHT22;228;48.922;12.198;2023-06-26T15:48:14;38.80;21.40
484;DHT22;228;48.922;12.198;2023-06-26T15:50:40;36.90;22.30
484;DHT22;228;48.922;12.198;2023-06-26T15:53:06;35.80;24.10
484;DHT22;228;48.922;12.198;2023-06-26T15:55:32;34.60;24.60
484;DHT22;228;48.922;12.198;2023-06-26T15:57:58;34.30;25.20
484;DHT22;228;48.922;12.198;2023-06-26T16:00:25;34.10;26.30
484;DHT22;228;48.922;12.198;2023-06-26T16:02:51;33.90;26.00
484;DHT22;228;48.922;12.198;2023-06-26T16:05:17;33.80;26.30
484;DHT22;228;48.922;12.198;2023-06-26T16:07:43;33.90;26.30
484;DHT22;228;48.922;12.198;2023-06-26T16:10:09;33.90;26.10
484;DHT22;228;48.922;12.198;2023-06-26T16:12:35;34.60;26.20
484;DHT22;228;48.922;12.198;2023-06-26T16:15:01;36.60;24.50
484;DHT22;228;48.922;12.198;2023-06-26T16:17:29;37.60;23.50
484;DHT22;228;48.922;12.198;2023-06-26T16:19:55;38.60;22.80
484;DHT22;228;48.922;12.198;2023-06-26T16:22:21;39.20;22.60
484;DHT22;228;48.922;12.198;2023-06-26T16:24:47;40.50;22.50
484;DHT22;228;48.922;12.198;2023-06-26T16:27:13;41.80;21.40
484;DHT22;228;48.922;12.198;2023-06-26T16:29:39;42.20;20.60
484;DHT22;228;48.922;12.198;2023-06-26T16:32:09;42.80;20.90
484;DHT22;228;48.922;12.198;2023-06-26T16:34:35;41.60;21.10
484;DHT22;228;48.922;12.198;2023-06-26T16:37:01;40.20;21.90
484;DHT22;228;48.922;12.198;2023-06-26T16:39:33;40.30;22.70
484;DHT22;228;48.922;12.198;2023-06-26T16:42:00;39.30;23.70
484;DHT22;228;48.922;12.198;2023-06-26T16:44:26;38.60;23.50
484;DHT22;228;48.922;12.198;2023-06-26T16:46:59;38.40;24.40
484;DHT22;228;48.922;12.198;2023-06-26T16:49:26;37.50;25.50
484;DHT22;228;48.922;12.198;2023-06-26T16:51:54;36.40;26.10
484;DHT22;228;48.922;12.198;2023-06-26T16:54:23;35.40;27.50
484;DHT22;228;48.922;12.198;2023-06-26T16:56:52;34.80;27.80
484;DHT22;228;48.922;12.198;2023-06-26T16:59:18;34.10;29.00
484;DHT22;228;48.922;12.198;2023-06-26T17:01:46;33.60;29.60
484;DHT22;228;48.922;12.198;2023-06-26T17:04:12;32.90;30.30
484;DHT22;228;48.922;12.198;2023-06-26T17:06:38;32.70;30.80
484;DHT22;228;48.922;12.198;2023-06-26T17:09:04;32.50;31.70
484;DHT22;228;48.922;12.198;2023-06-26T17:11:30;32.50;31.10
484;DHT22;228;48.922;12.198;2023-06-26T17:13:56;32.60;31.20
484;DHT22;228;48.922;12.198;2023-06-26T17:16:22;32.90;31.10
484;DHT22;228;48.922;12.198;2023-06-26T17:18:48;33.00;31.30
484;DHT22;228;48.922;12.198;2023-06-26T17:21:16;32.70;31.00
484;DHT22;228;48.922;12.198;2023-06-26T17:23:42;32.50;32.10
484;DHT22;228;48.922;12.198;2023-06-26T17:26:09;32.50;32.50
484;DHT22;228;48.922;12.198;2023-06-26T17:28:35;32.10;32.60
484;DHT22;228;48.922;12.198;2023-06-26T17:31:01;31.90;33.30
484;DHT22;228;48.922;12.198;2023-06-26T17:33:27;31.40;33.90
484;DHT22;228;48.922;12.198;2023-06-26T17:35:53;31.50;34.20
484;DHT22;228;48.922;12.198;2023-06-26T17:38:19;31.70;34.30
484;DHT22;228;48.922;12.198;2023-06-26T17:40:45;31.70;34.10
484;DHT22;228;48.922;12.198;2023-06-26T17:43:11;31.70;34.10
484;DHT22;228;48.922;12.198;2023-06-26T17:45:36;31.90;34.60
484;DHT22;228;48.922;12.198;2023-06-26T17:48:04;31.70;34.50
484;DHT22;228;48.922;12.198;2023-06-26T17:50:30;31.70;35.10
484;DHT22;228;48.922;12.198;2023-06-26T17:52:57;31.60;34.80
484;DHT22;228;48.922;12.198;2023-06-26T17:55:26;31.10;35.60
484;DHT22;228;48.922;12.198;2023-06-26T17:57:52;30.50;36.40
484;DHT22;228;48.922;12.198;2023-06-26T18:00:18;30.30;37.60
484;DHT22;228;48.922;12.198;2023-06-26T18:02:44;30.30;37.90
484;DHT22;228;48.922;12.198;2023-06-26T18:05:11;30.40;37.80
484;DHT22;228;48.922;12.198;2023-06-26T18:07:37;30.60;37.60
484;DHT22;228;48.922;12.198;2023-06-26T18:10:05;30.70;37.70
484;DHT22;228;48.922;12.198;2023-06-26T18:12:31;30.30;38.60
484;DHT22;228;48.922;12.198;2023-06-26T18:14:58;30.20;38.80
484;DHT22;228;48.922;12.198;2023-06-26T18:17:30;30.10;39.40
484;DHT22;228;48.922;12.198;2023-06-26T18:19:56;30.00;39.70
484;DHT22;228;48.922;12.198;2023-06-26T18:22:23;29.60;40.60
484;DHT22;228;48.922;12.198;2023-06-26T18:24:49;29.50;40.80
484;DHT22;228;48.922;12.198;2023-06-26T18:27:15;29.40;41.30
484;DHT22;228;48.922;12.198;2023-06-26T18:29:41;29.20;41.70
484;DHT22;228;48.922;12.198;2023-06-26T18:32:07;29.10;42.30
484;DHT22;228;48.922;12.198;2023-06-26T18:34:34;29.10;42.50
484;DHT22;228;48.922;12.198;2023-06-26T18:37:00;28.90;42.60
484;DHT22;228;48.922;12.198;2023-06-26T18:39:29;28.70;42.60
484;DHT22;228;48.922;12.198;2023-06-26T18:41:55;28.70;42.40
484;DHT22;228;48.922;12.198;2023-06-26T18:44:21;28.50;40.70
484;DHT22;228;48.922;12.198;2023-06-26T18:46:48;28.50;40.20
484;DHT22;228;48.922;12.198;2023-06-26T18:49:14;28.50;38.70
484;DHT22;228;48.922;12.198;2023-06-26T18:51:40;28.30;38.50
484;DHT22;228;48.922;12.198;2023-06-26T18:54:06;28.30;38.60
484;DHT22;228;48.922;12.198;2023-06-26T18:56:32;28.10;39.10
484;DHT22;228;48.922;12.198;2023-06-26T18:59:00;28.20;39.50
484;DHT22;228;48.922;12.198;2023-06-26T19:01:26;28.10;39.20
484;DHT22;228;48.922;12.198;2023-06-26T19:03:52;27.90;39.80
484;DHT22;228;48.922;12.198;2023-06-26T19:06:19;28.00;39.80
484;DHT22;228;48.922;12.198;2023-06-26T19:08:46;27.90;40.40
484;DHT22;228;48.922;12.198;2023-06-26T19:11:13;27.80;40.50
484;DHT22;228;48.922;12.198;2023-06-26T19:13:43;27.80;40.80
484;DHT22;228;48.922;12.198;2023-06-26T19:16:12;27.70;41.20
484;DHT22;228;48.922;12.198;2023-06-26T19:18:38;27.60;41.30
484;DHT22;228;48.922;12.198;2023-06-26T19:21:04;27.50;41.30
484;DHT22;228;48.922;12.198;2023-06-26T19:23:30;27.40;41.40
484;DHT22;228;48.922;12.198;2023-06-26T19:25:57;27.40;41.80
484;DHT22;228;48.922;12.198;2023-06-26T19:28:25;27.50;41.70
484;DHT22;228;48.922;12.198;2023-06-26T19:30:51;27.70;41.80
484;DHT22;228;48.922;12.198;2023-06-26T19:33:17;27.70;41.40
484;DHT22;228;48.922;12.198;2023-06-26T19:35:45;27.20;41.70
484;DHT22;228;48.922;12.198;2023-06-26T19:38:11;27.00;42.00
484;DHT22;228;48.922;12.198;2023-06-26T19:40:37;27.00;42.10
484;DHT22;228;48.922;12.198;2023-06-26T19:43:03;26.90;42.20
484;DHT22;228;48.922;12.198;2023-06-26T19:45:30;27.00;42.30
484;DHT22;228;48.922;12.198;2023-06-26T19:47:57;26.90;42.40
484;DHT22;228;48.922;12.198;2023-06-26T19:50:23;26.80;42.20
484;DHT22;228;48.922;12.198;2023-06-26T19:52:51;26.60;42.30
484;DHT22;228;48.922;12.198;2023-06-26T19:55:17;26.60;42.30
484;DHT22;228;48.922;12.198;2023-06-26T19:57:44;26.50;42.30
484;DHT22;228;48.922;12.198;2023-06-26T20:00:12;26.30;42.70
484;DHT22;228;48.922;12.198;2023-06-26T20:02:38;26.40;42.80
484;DHT22;228;48.922;12.198;2023-06-26T20:05:04;26.30;42.90
484;DHT22;228;48.922;12.198;2023-06-26T20:07:31;26.40;43.00
484;DHT22;228;48.922;12.198;2023-06-26T20:09:57;26.40;43.00
484;DHT22;228;48.922;12.198;2023-06-26T20:12:23;26.30;43.10
484;DHT22;228;48.922;12.198;2023-06-26T20:14:49;26.30;43.40
484;DHT22;228;48.922;12.198;2023-06-26T20:17:15;26.00;43.50
484;DHT22;228;48.922;12.198;2023-06-26T20:19:41;26.00;43.80
484;DHT22;228;48.922;12.198;2023-06-26T20:22:09;26.00;43.70
484;DHT22;228;48.922;12.198;2023-06-26T20:24:35;26.00;43.70
484;DHT22;228;48.922;12.198;2023-06-26T20:27:02;25.90;43.90
484;DHT22;228;48.922;12.198;2023-06-26T20:29:28;25.90;44.40
484;DHT22;228;48.922;12.198;2023-06-26T20:31:54;25.70;44.70
484;DHT22;228;48.922;12.198;2023-06-26T20:34:20;25.60;45.40
484;DHT22;228;48.922;12.198;2023-06-26T20:36:48;25.60;45.00
484;DHT22;228;48.922;12.198;2023-06-26T20:39:14;25.60;45.40
484;DHT22;228;48.922;12.198;2023-06-26T20:41:41;25.50;45.30
484;DHT22;228;48.922;12.198;2023-06-26T20:44:07;25.50;45.40
484;DHT22;228;48.922;12.198;2023-06-26T20:46:34;25.30;45.80
484;DHT22;228;48.922;12.198;2023-06-26T20:49:02;25.20;46.20
484;DHT22;228;48.922;12.198;2023-06-26T20:51:29;25.00;46.60
484;DHT22;228;48.922;12.198;2023-06-26T20:53:55;25.00;46.70
484;DHT22;228;48.922;12.198;2023-06-26T20:56:23;25.00;46.90
484;DHT22;228;48.922;12.198;2023-06-26T20:58:50;25.00;47.20
484;DHT22;228;48.922;12.198;2023-06-26T21:01:17;25.30;46.70
484;DHT22;228;48.922;12.198;2023-06-26T21:03:43;25.20;46.70